Time;durP1;ratioP1;P1;durP2;ratioP2;P2;SDS_P1;SDS_P2;PMS_P1;PMS_P2;Temp;Humidity;BMP_temperature;BMP_pressure;BME280_temperature;BME280_humidity;BME280_pressure;Samples;Min_cycle;Max_cycle;Signal;HPM_P1;HPM_P2
2021/03/26 00:00:13;;;;;;;11.52;6.60;;;9.90;92.90;;;;;;4946356;29;20106;-76
2021/03/26 00:02:39;;;;;;;10.77;6.87;;;9.90;93.50;;;;;;4944881;29;20028;-78
2021/03/26 00:05:08;;;;;;;9.80;6.93;;;9.90;92.20;;;;;;4939947;29;20348;-74
2021/03/26 00:07:33;;;;;;;11.82;7.70;;;9.90;95.30;;;;;;4934628;29;20032;-76
2021/03/26 00:09:59;;;;;;;10.77;7.88;;;9.90;93.20;;;;;;4938179;29;20500;-76
2021/03/26 00:12:26;;;;;;;11.32;8.48;;;10.00;90.10;;;;;;4936082;29;20510;-73
2021/03/26 00:14:52;;;;;;;14.60;7.80;;;9.90;91.10;;;;;;4935296;29;20035;-74
2021/03/26 00:17:18;;;;;;;13.15;7.78;;;9.90;90.60;;;;;;4937315;29;20026;-76
2021/03/26 00:19:44;;;;;;;11.35;7.97;;;9.90;93.00;;;;;;4938650;29;20044;-75
2021/03/26 00:22:09;;;;;;;10.38;8.13;;;10.00;91.80;;;;;;4936617;29;20034;-75
2021/03/26 00:24:35;;;;;;;9.55;7.88;;;9.90;92.10;;;;;;4937161;29;20046;-78
2021/03/26 00:27:01;;;;;;;9.07;7.75;;;10.00;89.70;;;;;;4944306;29;20039;-74
2021/03/26 00:29:26;;;;;;;12.90;8.65;;;10.00;85.60;;;;;;4933299;29;20119;-76
2021/03/26 00:31:52;;;;;;;11.52;8.10;;;10.00;85.00;;;;;;4940900;29;20028;-75
2021/03/26 00:34:18;;;;;;;11.07;8.75;;;10.00;90.40;;;;;;4918260;29;20040;-74
2021/03/26 00:36:46;;;;;;;10.13;7.82;;;10.00;86.90;;;;;;4924732;29;20020;-75
2021/03/26 00:39:11;;;;;;;11.65;8.02;;;10.00;81.80;;;;;;4925855;29;20119;-76
2021/03/26 00:41:37;;;;;;;10.55;7.85;;;10.00;87.00;;;;;;4920727;29;20493;-75
2021/03/26 00:44:04;;;;;;;10.25;8.27;;;9.90;91.40;;;;;;4920909;29;20024;-76
2021/03/26 00:46:32;;;;;;;11.68;7.18;;;9.80;95.20;;;;;;4919405;29;20445;-77
2021/03/26 00:48:57;;;;;;;12.40;7.70;;;9.80;98.90;;;;;;4919046;29;20047;-75
2021/03/26 00:51:23;;;;;;;10.82;7.75;;;9.70;99.90;;;;;;4923742;29;20645;-75
2021/03/26 00:53:48;;;;;;;9.13;8.02;;;9.60;99.90;;;;;;4927702;29;20107;-73
2021/03/26 00:56:14;;;;;;;11.00;8.88;;;9.60;99.90;;;;;;4928162;29;20042;-75
2021/03/26 00:58:39;;;;;;;13.43;8.27;;;9.50;99.90;;;;;;4939037;29;20562;-75
2021/03/26 01:01:05;;;;;;;9.85;7.85;;;9.40;99.90;;;;;;4929819;29;20107;-75
2021/03/26 01:03:31;;;;;;;11.30;8.48;;;9.40;99.90;;;;;;4929212;29;20091;-75
2021/03/26 01:06:09;;;;;;;11.65;8.63;;;9.30;99.90;;;;;;4948436;29;20099;-74
2021/03/26 01:08:36;;;;;;;10.60;8.57;;;9.20;99.90;;;;;;4942396;29;20037;-75
2021/03/26 01:11:07;;;;;;;16.88;9.40;;;9.00;99.90;;;;;;4930164;29;20103;-74
2021/03/26 01:13:33;;;;;;;18.23;9.38;;;8.90;99.90;;;;;;4930098;29;20091;-76
2021/03/26 01:15:58;;;;;;;17.05;9.73;;;8.80;99.90;;;;;;4935598;29;20088;-76
2021/03/26 01:18:28;;;;;;;13.43;10.50;;;8.70;99.90;;;;;;4936492;29;20436;-75
2021/03/26 01:20:57;;;;;;;12.52;9.50;;;8.60;99.90;;;;;;4937391;29;20552;-74
2021/03/26 01:23:23;;;;;;;14.68;11.13;;;8.50;99.90;;;;;;4939362;29;20409;-76
2021/03/26 01:25:49;;;;;;;17.00;11.13;;;8.50;99.90;;;;;;4941176;29;20028;-74
2021/03/26 01:28:19;;;;;;;16.85;10.48;;;8.40;99.90;;;;;;4927427;29;20177;-75
2021/03/26 01:30:45;;;;;;;17.77;11.38;;;8.40;99.90;;;;;;4935988;29;20369;-74
2021/03/26 01:33:11;;;;;;;15.60;11.20;;;8.40;99.90;;;;;;4924250;29;20034;-76
2021/03/26 01:35:38;;;;;;;14.15;10.32;;;8.40;99.90;;;;;;4935703;29;20109;-75
2021/03/26 01:38:06;;;;;;;14.18;9.40;;;8.30;99.90;;;;;;4954006;28;20047;-74
2021/03/26 01:40:37;;;;;;;13.50;10.13;;;8.30;99.90;;;;;;4933466;29;20102;-75
2021/03/26 01:43:19;;;;;;;11.93;9.60;;;8.30;99.90;;;;;;4925953;29;20385;-74
2021/03/26 01:45:45;;;;;;;13.63;8.95;;;8.30;99.90;;;;;;4929132;29;20098;-76
2021/03/26 01:48:18;;;;;;;11.32;9.68;;;8.30;99.90;;;;;;4923196;29;20068;-74
2021/03/26 01:50:44;;;;;;;16.45;11.02;;;8.30;99.90;;;;;;4930319;29;20067;-75
2021/03/26 01:53:10;;;;;;;11.57;9.98;;;8.30;99.90;;;;;;4937920;29;20027;-73
2021/03/26 01:55:43;;;;;;;15.13;11.35;;;8.30;99.90;;;;;;4924695;29;20432;-75
2021/03/26 01:58:13;;;;;;;16.90;10.80;;;8.60;99.90;;;;;;4928310;29;20048;-75
2021/03/26 02:00:45;;;;;;;14.65;11.45;;;8.60;99.90;;;;;;4925427;29;20031;-74
2021/03/26 02:03:32;;;;;;;14.35;10.32;;;8.50;99.90;;;;;;4929885;29;20578;-75
2021/03/26 02:06:02;;;;;;;14.95;11.52;;;8.40;99.90;;;;;;4926643;29;20036;-75
2021/03/26 02:08:31;;;;;;;15.13;10.23;;;8.30;99.90;;;;;;4928971;29;20042;-75
2021/03/26 02:11:01;;;;;;;16.65;11.90;;;8.20;99.90;;;;;;4928534;29;20376;-75
2021/03/26 02:13:30;;;;;;;14.82;12.65;;;8.10;99.90;;;;;;4921074;29;20492;-75
2021/03/26 02:15:58;;;;;;;15.48;10.60;;;8.10;99.90;;;;;;4933106;29;20032;-75
2021/03/26 02:18:31;;;;;;;16.30;11.77;;;8.10;99.90;;;;;;4920177;29;20040;-75
2021/03/26 02:21:01;;;;;;;14.52;11.35;;;8.10;99.90;;;;;;4929665;29;20023;-72
2021/03/26 02:23:28;;;;;;;15.18;12.45;;;8.10;99.90;;;;;;4935962;29;20480;-74
2021/03/26 02:25:56;;;;;;;14.35;11.32;;;8.10;99.90;;;;;;4922461;29;20162;-76
2021/03/26 02:28:23;;;;;;;20.33;11.05;;;8.20;99.90;;;;;;4927225;29;20123;-75
2021/03/26 02:30:55;;;;;;;14.10;10.80;;;8.20;99.90;;;;;;4937361;29;20027;-74
2021/03/26 02:33:22;;;;;;;14.32;11.60;;;8.10;99.90;;;;;;4922550;29;20032;-75
2021/03/26 02:36:14;;;;;;;17.83;12.38;;;8.20;99.90;;;;;;4921784;29;20036;-74
2021/03/26 02:38:42;;;;;;;14.43;11.38;;;8.20;99.90;;;;;;4937079;28;20511;-73
2021/03/26 02:41:40;;;;;;;18.98;11.88;;;8.10;99.90;;;;;;4926008;29;20103;-74
2021/03/26 02:44:36;;;;;;;17.80;12.43;;;8.10;99.90;;;;;;4924293;29;20586;-75
2021/03/26 02:47:22;;;;;;;15.93;11.95;;;8.10;99.90;;;;;;4921295;29;20039;-76
2021/03/26 02:49:47;;;;;;;18.75;13.38;;;8.00;99.90;;;;;;4912052;29;20075;-76
2021/03/26 02:52:28;;;;;;;21.33;13.80;;;7.90;99.90;;;;;;4931163;29;20024;-73
2021/03/26 02:55:19;;;;;;;23.13;14.65;;;7.90;99.90;;;;;;4924764;29;20060;-76
2021/03/26 02:57:52;;;;;;;20.77;13.85;;;7.90;99.90;;;;;;4930937;29;20514;-76
2021/03/26 03:00:45;;;;;;;19.38;13.10;;;7.80;99.90;;;;;;4924646;29;20030;-74
2021/03/26 03:03:13;;;;;;;17.73;13.65;;;7.80;99.90;;;;;;4928228;29;20034;-76
2021/03/26 03:05:43;;;;;;;18.70;15.00;;;7.90;99.90;;;;;;4925846;29;20024;-76
2021/03/26 03:08:23;;;;;;;23.73;14.43;;;8.00;99.90;;;;;;4928867;29;20024;-74
2021/03/26 03:10:53;;;;;;;19.63;14.68;;;7.80;99.90;;;;;;4933753;29;20042;-73
2021/03/26 03:13:47;;;;;;;23.48;14.15;;;7.70;99.90;;;;;;4926799;29;20038;-76
2021/03/26 03:16:20;;;;;;;20.08;14.05;;;7.60;99.90;;;;;;4923588;29;20126;-75
2021/03/26 03:18:55;;;;;;;20.02;13.20;;;7.60;99.90;;;;;;4920830;29;20040;-74
2021/03/26 03:21:28;;;;;;;19.67;12.95;;;7.50;99.90;;;;;;4924890;29;20435;-76
2021/03/26 03:24:05;;;;;;;16.85;13.45;;;7.50;99.90;;;;;;4924709;29;20500;-73
2021/03/26 03:26:49;;;;;;;20.27;12.77;;;7.40;99.90;;;;;;4929634;29;20394;-74
2021/03/26 03:29:27;;;;;;;20.80;14.30;;;7.40;99.90;;;;;;4928632;29;20079;-74
2021/03/26 03:32:39;;;;;;;20.40;13.70;;;7.30;99.90;;;;;;4931361;29;20032;-74
2021/03/26 03:35:15;;;;;;;21.65;14.18;;;7.30;99.90;;;;;;4912970;29;20040;-75
2021/03/26 03:37:54;;;;;;;17.95;14.18;;;7.20;99.90;;;;;;4922390;29;20051;-73
2021/03/26 03:40:49;;;;;;;22.90;15.77;;;7.20;99.90;;;;;;4926470;29;20547;-72
2021/03/26 03:43:40;;;;;;;19.52;15.20;;;7.20;99.90;;;;;;4914548;29;20056;-76
2021/03/26 03:46:21;;;;;;;17.83;13.80;;;7.20;99.90;;;;;;4923468;29;20036;-74
2021/03/26 03:49:15;;;;;;;23.80;14.70;;;7.20;99.90;;;;;;4923892;29;20043;-73
2021/03/26 03:51:48;;;;;;;21.63;15.68;;;7.20;99.90;;;;;;4928276;29;20031;-74
2021/03/26 03:54:28;;;;;;;18.33;15.05;;;7.10;99.90;;;;;;4933746;29;20118;-74
2021/03/26 03:57:00;;;;;;;23.73;14.90;;;7.10;99.90;;;;;;4934778;29;20051;-76
2021/03/26 03:59:53;;;;;;;20.80;14.65;;;7.30;99.90;;;;;;4918856;29;20693;-76
2021/03/26 04:02:23;;;;;;;19.30;13.65;;;7.20;99.90;;;;;;4923307;29;20040;-74
2021/03/26 04:05:11;;;;;;;18.98;13.48;;;7.10;99.90;;;;;;4929747;29;20027;-74
2021/03/26 04:07:53;;;;;;;19.85;14.32;;;7.10;99.90;;;;;;4922873;29;20031;-75
2021/03/26 04:10:19;;;;;;;18.45;14.43;;;7.20;99.90;;;;;;4929931;29;20036;-74
2021/03/26 04:12:51;;;;;;;21.60;15.02;;;7.20;99.90;;;;;;4924466;29;20034;-75
2021/03/26 04:15:29;;;;;;;20.08;15.05;;;7.20;99.90;;;;;;4929279;29;20106;-74
2021/03/26 04:18:02;;;;;;;21.05;13.68;;;7.20;99.90;;;;;;4930681;29;20027;-75
2021/03/26 04:20:34;;;;;;;23.30;13.55;;;7.30;99.90;;;;;;4924632;29;20384;-75
2021/03/26 04:23:07;;;;;;;16.42;13.48;;;7.30;99.90;;;;;;4925389;29;20656;-75
2021/03/26 04:25:36;;;;;;;22.67;13.95;;;7.40;99.90;;;;;;4926754;29;20036;-77
2021/03/26 04:28:15;;;;;;;19.75;13.50;;;7.70;99.90;;;;;;4933897;29;20020;-76
2021/03/26 04:30:46;;;;;;;18.40;14.00;;;7.70;99.90;;;;;;4927283;29;20084;-76
2021/03/26 04:33:12;;;;;;;23.75;13.93;;;7.60;99.90;;;;;;4928093;29;20047;-74
2021/03/26 04:35:38;;;;;;;19.83;14.05;;;7.70;99.90;;;;;;4924060;29;20024;-73
2021/03/26 04:38:14;;;;;;;20.25;14.05;;;7.70;99.90;;;;;;4929099;29;20501;-73
2021/03/26 04:40:47;;;;;;;19.85;14.25;;;7.60;99.90;;;;;;4925963;29;20031;-73
2021/03/26 04:43:35;;;;;;;15.52;12.68;;;7.60;99.90;;;;;;4932464;29;20024;-76
2021/03/26 04:46:11;;;;;;;23.13;14.65;;;7.70;99.90;;;;;;4933223;29;20024;-75
2021/03/26 04:48:46;;;;;;;19.92;14.50;;;7.70;99.90;;;;;;4945157;29;20032;-76
2021/03/26 04:51:30;;;;;;;18.65;14.98;;;7.70;99.90;;;;;;4938820;29;20028;-76
2021/03/26 04:54:09;;;;;;;22.67;16.15;;;7.60;99.90;;;;;;4944639;29;20028;-74
2021/03/26 04:56:40;;;;;;;18.95;15.25;;;7.40;99.90;;;;;;4931966;29;20038;-75
2021/03/26 04:59:08;;;;;;;17.75;13.88;;;7.50;99.90;;;;;;4929862;29;20043;-74
2021/03/26 05:01:36;;;;;;;21.25;14.50;;;7.50;99.90;;;;;;4933005;29;20027;-76
2021/03/26 05:04:20;;;;;;;24.38;13.90;;;7.70;99.90;;;;;;4934309;29;20055;-74
2021/03/26 05:07:07;;;;;;;20.60;14.55;;;7.70;99.90;;;;;;4927341;29;20103;-75
2021/03/26 05:09:37;;;;;;;17.85;14.32;;;7.60;99.90;;;;;;4925961;29;20024;-74
2021/03/26 05:12:16;;;;;;;20.42;14.88;;;7.70;99.90;;;;;;4931894;29;20551;-74
2021/03/26 05:14:49;;;;;;;20.67;15.30;;;7.60;99.90;;;;;;4933745;29;20030;-75
2021/03/26 05:17:20;;;;;;;19.85;15.18;;;7.50;99.90;;;;;;4932236;29;20032;-74
2021/03/26 05:20:06;;;;;;;19.90;15.57;;;7.30;99.90;;;;;;4927502;29;20016;-74
2021/03/26 05:22:51;;;;;;;22.13;15.02;;;7.10;99.90;;;;;;4947439;23;20383;-74
2021/03/26 05:25:34;;;;;;;22.27;14.93;;;7.30;99.90;;;;;;4974423;28;20034;-74
2021/03/26 05:28:01;;;;;;;19.63;14.38;;;7.30;99.90;;;;;;4967138;28;20031;-74
2021/03/26 05:30:36;;;;;;;22.38;15.38;;;7.20;99.90;;;;;;4969683;28;20026;-73
2021/03/26 05:33:08;;;;;;;21.13;14.00;;;7.20;99.90;;;;;;4963087;28;20097;-74
2021/03/26 05:35:41;;;;;;;16.58;13.73;;;7.40;99.90;;;;;;4968574;28;20015;-75
2021/03/26 05:38:12;;;;;;;22.15;14.52;;;7.50;99.90;;;;;;4973994;28;20026;-76
2021/03/26 05:40:47;;;;;;;22.05;14.20;;;7.50;99.90;;;;;;4960633;28;20031;-73
2021/03/26 05:43:34;;;;;;;17.05;13.80;;;7.60;99.90;;;;;;4963613;28;20100;-74
2021/03/26 05:46:27;;;;;;;17.25;13.77;;;7.60;99.90;;;;;;4945214;29;20027;-74
2021/03/26 05:48:58;;;;;;;20.30;13.85;;;7.80;99.90;;;;;;4960704;28;20054;-74
2021/03/26 05:51:33;;;;;;;22.65;13.35;;;7.90;99.90;;;;;;4965150;28;20024;-74
2021/03/26 05:54:09;;;;;;;24.58;15.05;;;8.00;99.90;;;;;;4963798;28;20053;-74
2021/03/26 05:56:43;;;;;;;20.70;13.07;;;8.00;99.90;;;;;;4960224;28;20027;-74
2021/03/26 05:59:38;;;;;;;20.50;15.10;;;7.70;99.90;;;;;;4970274;28;20023;-74
2021/03/26 06:02:27;;;;;;;18.95;15.18;;;7.70;99.90;;;;;;4968180;28;20479;-75
2021/03/26 06:05:18;;;;;;;20.15;14.85;;;7.90;99.90;;;;;;4959625;28;20499;-74
2021/03/26 06:08:04;;;;;;;16.25;13.32;;;7.90;99.90;;;;;;4956213;28;20025;-74
2021/03/26 06:11:07;;;;;;;16.15;13.77;;;8.20;99.90;;;;;;4965154;28;20045;-74
2021/03/26 06:14:11;;;;;;;15.68;13.30;;;8.50;99.90;;;;;;4951276;28;20031;-74
2021/03/26 06:17:17;;;;;;;24.30;13.98;;;8.60;99.90;;;;;;4950355;28;20031;-75
2021/03/26 06:19:55;;;;;;;28.90;13.75;;;8.90;99.90;;;;;;4946107;28;20369;-74
2021/03/26 06:23:05;;;;;;;25.95;14.63;;;8.90;99.90;;;;;;4948736;28;20083;-74
2021/03/26 06:25:51;;;;;;;22.40;13.60;;;8.70;99.90;;;;;;4952589;28;20033;-74
2021/03/26 06:28:32;;;;;;;18.80;13.25;;;8.70;99.90;;;;;;4977655;29;20035;-74
2021/03/26 06:31:25;;;;;;;24.67;13.05;;;9.10;99.90;;;;;;4967752;28;20024;-74
2021/03/26 06:34:29;;;;;;;18.98;13.98;;;9.50;95.40;;;;;;4969957;28;20050;-74
2021/03/26 06:37:28;;;;;;;16.40;14.07;;;9.60;91.30;;;;;;4976883;28;20041;-74
2021/03/26 06:40:07;;;;;;;18.35;12.88;;;9.70;70.70;;;;;;4939714;29;20111;-75
2021/03/26 06:42:59;;;;;;;21.52;13.68;;;9.50;99.90;;;;;;4964510;28;20425;-75
2021/03/26 06:45:59;;;;;;;17.75;13.88;;;9.60;96.50;;;;;;4947462;28;20027;-75
2021/03/26 06:48:40;;;;;;;14.80;12.77;;;9.70;96.00;;;;;;4950264;28;20058;-74
2021/03/26 06:51:14;;;;;;;;;;;9.60;97.40;;;;;;4955099;28;20027;-75
2021/03/26 06:53:58;;;;;;;15.60;13.07;;;9.60;91.40;;;;;;4960955;29;19933;-75
2021/03/26 06:57:03;;;;;;;18.27;14.02;;;9.60;95.00;;;;;;4949007;28;20026;-75
2021/03/26 06:59:49;;;;;;;20.35;13.38;;;9.60;92.30;;;;;;4946705;28;20034;-74
2021/03/26 07:02:29;;;;;;;16.17;13.20;;;9.70;80.30;;;;;;4945964;28;20055;-74
2021/03/26 07:05:21;;;;;;;20.10;13.93;;;9.80;67.60;;;;;;4966657;28;20054;-74
2021/03/26 07:07:52;;;;;;;20.95;12.65;;;9.90;65.40;;;;;;4956863;28;20411;-74
2021/03/26 07:10:45;;;;;;;16.83;12.85;;;9.80;57.10;;;;;;4950693;28;20126;-73
2021/03/26 07:13:27;;;;;;;22.08;12.50;;;9.90;53.50;;;;;;4947617;28;20042;-75
2021/03/26 07:15:52;;;;;;;25.60;14.05;;;9.90;59.10;;;;;;4952376;29;20468;-75
2021/03/26 07:18:56;;;;;;;18.70;13.98;;;9.90;56.40;;;;;;4949923;28;20054;-75
2021/03/26 07:21:47;;;;;;;21.77;13.90;;;10.00;40.30;;;;;;4951193;28;20048;-75
2021/03/26 07:24:45;;;;;;;17.63;14.45;;;10.00;34.50;;;;;;4967898;28;20089;-74
2021/03/26 07:27:23;;;;;;;19.80;14.75;;;10.10;39.60;;;;;;4943757;28;20058;-74
2021/03/26 07:30:14;;;;;;;15.30;13.30;;;10.40;1.00;;;;;;4947104;29;20028;-74
2021/03/26 07:33:10;;;;;;;27.98;13.38;;;10.60;1.00;;;;;;4943064;28;20031;-76
2021/03/26 07:36:02;;;;;;;19.10;13.23;;;10.80;1.00;;;;;;4944009;28;20062;-74
2021/03/26 07:38:46;;;;;;;;;;;11.20;1.00;;;;;;4955209;28;20027;-75
2021/03/26 07:41:34;;;;;;;19.33;12.52;;;11.20;99.90;;;;;;4954112;28;19915;-78
2021/03/26 07:44:15;;;;;;;18.10;12.43;;;11.20;99.90;;;;;;4958241;28;20054;-74
2021/03/26 07:47:02;;;;;;;21.38;13.90;;;11.10;1.00;;;;;;4949652;28;20035;-75
2021/03/26 07:50:00;;;;;;;24.40;13.98;;;11.40;1.00;;;;;;4955647;28;20394;-74
2021/03/26 07:52:32;;;;;;;22.50;14.10;;;11.30;1.00;;;;;;4901070;28;20044;-74
2021/03/26 07:55:24;;;;;;;21.73;14.93;;;11.20;1.00;;;;;;4964396;28;20126;-76
2021/03/26 07:57:56;;;;;;;21.98;13.10;;;11.10;1.00;;;;;;4950444;28;20111;-76
2021/03/26 08:00:30;;;;;;;33.53;15.80;;;11.00;1.00;;;;;;4954833;28;21136;-75
2021/03/26 08:03:16;;;;;;;20.35;14.77;;;11.20;1.00;;;;;;4968890;28;20114;-75
2021/03/26 08:06:19;;;;;;;24.08;16.38;;;11.40;1.00;;;;;;4955288;28;20361;-75
2021/03/26 08:09:03;;;;;;;18.20;13.30;;;11.60;99.90;;;;;;4965037;28;20033;-75
2021/03/26 08:11:48;;;;;;;21.02;14.63;;;11.60;99.90;;;;;;4981169;28;20027;-75
2021/03/26 08:14:29;;;;;;;22.70;15.10;;;11.80;1.00;;;;;;4967238;28;20503;-76
2021/03/26 08:17:29;;;;;;;17.90;13.95;;;11.80;99.90;;;;;;4944194;29;20086;-75
2021/03/26 08:20:14;;;;;;;19.80;13.60;;;12.00;99.90;;;;;;4951938;28;20038;-75
2021/03/26 08:22:46;;;;;;;15.60;12.65;;;12.10;99.90;;;;;;4949865;29;20047;-75
2021/03/26 08:25:29;;;;;;;24.08;13.27;;;12.20;99.90;;;;;;4958286;28;20042;-74
2021/03/26 08:28:00;;;;;;;17.63;13.60;;;12.10;99.90;;;;;;4935222;28;20023;-74
2021/03/26 08:30:44;;;;;;;16.23;12.32;;;12.50;99.90;;;;;;4942415;29;20037;-75
2021/03/26 08:33:37;;;;;;;16.05;11.80;;;12.80;1.00;;;;;;4950154;28;20051;-75
2021/03/26 08:36:15;;;;;;;17.35;12.07;;;12.60;95.70;;;;;;4954432;29;20371;-76
2021/03/26 08:39:15;;;;;;;15.65;12.07;;;12.90;1.00;;;;;;4972893;28;20050;-74
2021/03/26 08:41:46;;;;;;;16.77;11.13;;;12.90;1.00;;;;;;4955383;28;20082;-75
2021/03/26 08:44:21;;;;;;;13.07;11.38;;;12.60;41.20;;;;;;4971566;28;20044;-75
2021/03/26 08:46:51;;;;;;;17.15;11.05;;;12.70;1.00;;;;;;4955605;28;20027;-75
2021/03/26 08:49:23;;;;;;;14.25;12.18;;;13.00;1.00;;;;;;4982107;28;20026;-74
2021/03/26 08:52:01;;;;;;;20.15;11.18;;;13.20;99.90;;;;;;4971559;28;20039;-75
2021/03/26 08:55:00;;;;;;;13.25;11.38;;;13.30;99.90;;;;;;4976676;28;20042;-73
2021/03/26 08:57:47;;;;;;;20.60;13.20;;;13.30;99.90;;;;;;4972694;28;20031;-75
2021/03/26 09:00:31;;;;;;;21.20;13.20;;;13.30;99.90;;;;;;4977411;28;20023;-75
2021/03/26 09:03:18;;;;;;;23.33;13.10;;;13.30;99.90;;;;;;4972676;28;20019;-76
2021/03/26 09:06:00;;;;;;;19.48;12.90;;;13.60;1.00;;;;;;4963403;28;20030;-75
2021/03/26 09:08:44;;;;;;;14.77;11.48;;;13.70;99.90;;;;;;4960698;28;20027;-77
2021/03/26 09:11:44;;;;;;;12.82;10.93;;;13.90;31.50;;;;;;4968465;28;20146;-76
2021/03/26 09:14:27;;;;;;;15.27;11.65;;;13.60;99.90;;;;;;4979559;28;20011;-76
2021/03/26 09:16:58;;;;;;;17.17;11.73;;;13.90;1.00;;;;;;4957956;28;20090;-74
2021/03/26 09:19:36;;;;;;;19.88;11.80;;;14.00;99.90;;;;;;4957881;28;20035;-76
2021/03/26 09:22:46;;;;;;;15.55;11.40;;;14.00;99.90;;;;;;4959718;28;20033;-76
2021/03/26 09:25:49;;;;;;;18.50;11.52;;;14.00;1.00;;;;;;4917247;29;20410;-75
2021/03/26 09:28:37;;;;;;;17.52;10.93;;;14.10;1.00;;;;;;4943821;28;20027;-77
2021/03/26 09:31:15;;;;;;;16.30;11.38;;;14.40;78.90;;;;;;4953497;28;20041;-75
2021/03/26 09:33:59;;;;;;;19.38;11.00;;;14.40;99.90;;;;;;4971790;28;20051;-75
2021/03/26 09:36:29;;;;;;;18.63;11.02;;;14.50;1.00;;;;;;4950958;28;20035;-76
2021/03/26 09:39:05;;;;;;;13.82;10.65;;;14.60;88.00;;;;;;4958572;28;20019;-76
2021/03/26 09:41:48;;;;;;;13.50;9.55;;;14.70;99.90;;;;;;4957740;29;20042;-76
2021/03/26 09:44:26;;;;;;;16.70;10.38;;;14.90;99.90;;;;;;4953510;28;20026;-75
2021/03/26 09:47:00;;;;;;;12.77;9.82;;;14.70;1.00;;;;;;4964001;28;20106;-75
2021/03/26 09:49:42;;;;;;;19.92;10.10;;;14.80;99.90;;;;;;4983063;28;20031;-74
2021/03/26 09:52:14;;;;;;;14.50;8.60;;;15.00;99.90;;;;;;4958572;29;20031;-74
2021/03/26 09:54:43;;;;;;;14.13;9.82;;;14.90;99.90;;;;;;4959009;29;20055;-76
2021/03/26 09:57:34;;;;;;;13.32;9.10;;;14.90;99.90;;;;;;4955060;28;20056;-76
2021/03/26 10:00:12;;;;;;;16.77;10.40;;;15.20;78.10;;;;;;4943835;29;20087;-75
2021/03/26 10:02:39;;;;;;;16.35;10.50;;;15.40;1.00;;;;;;4958396;28;20073;-75
2021/03/26 10:05:15;;;;;;;14.55;10.27;;;15.70;1.00;;;;;;4974204;28;20053;-76
2021/03/26 10:07:54;;;;;;;15.50;10.05;;;15.80;99.90;;;;;;4954823;29;20023;-75
2021/03/26 10:13:11;;;;;;;11.80;9.70;;;15.90;99.90;;;;;;4968406;28;20110;-76
2021/03/26 10:15:56;;;;;;;15.20;10.45;;;16.10;99.90;;;;;;4960662;28;20093;-74
2021/03/26 10:18:32;;;;;;;15.73;10.35;;;16.10;1.00;;;;;;4954912;28;20031;-75
2021/03/26 10:21:17;;;;;;;13.35;8.98;;;16.20;32.10;;;;;;4954759;29;20035;-74
2021/03/26 10:23:56;;;;;;;11.85;8.68;;;16.30;16.80;;;;;;4959546;28;20022;-75
2021/03/26 10:26:40;;;;;;;10.07;8.77;;;16.50;99.90;;;;;;4967464;28;20034;-74
2021/03/26 10:29:30;;;;;;;12.77;9.57;;;16.30;1.00;;;;;;4965068;28;20035;-76
2021/03/26 10:32:10;;;;;;;14.55;8.85;;;16.60;99.90;;;;;;4959347;29;20027;-75
2021/03/26 10:34:40;;;;;;;7.67;6.83;;;16.80;99.90;;;;;;4964928;28;20053;-73
2021/03/26 10:37:20;;;;;;;9.98;7.40;;;16.70;99.90;;;;;;4975028;28;20251;-74
2021/03/26 10:39:56;;;;;;;13.05;8.02;;;16.70;99.90;;;;;;4972256;28;20092;-76
2021/03/26 10:42:46;;;;;;;9.70;7.47;;;17.00;99.90;;;;;;4972009;28;20124;-75
2021/03/26 10:45:26;;;;;;;10.10;6.70;;;16.80;99.90;;;;;;4965694;28;20023;-74
2021/03/26 10:48:04;;;;;;;12.50;7.35;;;16.80;99.90;;;;;;4988218;28;20026;-76
2021/03/26 10:50:33;;;;;;;11.25;8.93;;;17.10;99.90;;;;;;4978263;28;20086;-75
2021/03/26 10:53:09;;;;;;;15.02;8.25;;;17.80;1.00;;;;;;4968654;28;20033;-76
2021/03/26 10:55:56;;;;;;;8.15;6.00;;;17.90;1.00;;;;;;4953640;28;20027;-75
2021/03/26 10:58:41;;;;;;;10.23;5.35;;;17.60;1.00;;;;;;4973865;28;20034;-74
2021/03/26 11:01:17;;;;;;;9.02;5.75;;;17.70;1.00;;;;;;4972886;28;20046;-74
2021/03/26 11:03:56;;;;;;;7.20;4.50;;;17.70;99.90;;;;;;4949676;28;20038;-74
2021/03/26 11:06:53;;;;;;;5.43;4.45;;;17.80;99.90;;;;;;4971671;28;20034;-74
2021/03/26 11:09:41;;;;;;;5.72;4.93;;;17.90;99.90;;;;;;4980229;28;20034;-73
2021/03/26 11:12:19;;;;;;;6.93;4.43;;;18.00;99.90;;;;;;4990404;28;20027;-75
2021/03/26 11:15:12;;;;;;;7.03;4.43;;;17.90;99.90;;;;;;4955954;29;20448;-76
2021/03/26 11:18:08;;;;;;;5.25;4.60;;;18.00;99.90;;;;;;4964407;28;20029;-75
2021/03/26 11:20:48;;;;;;;8.05;5.10;;;18.10;99.90;;;;;;4965864;29;20023;-75
2021/03/26 11:23:27;;;;;;;6.77;4.37;;;18.10;99.90;;;;;;5031207;23;20094;-75
2021/03/26 11:26:04;;;;;;;5.45;4.40;;;18.30;99.90;;;;;;4971311;28;20054;-76
2021/03/26 11:28:33;;;;;;;6.82;4.47;;;18.40;99.90;;;;;;4969147;28;20503;-76
2021/03/26 11:31:13;;;;;;;8.05;4.40;;;18.20;99.90;;;;;;4965771;28;20118;-76
2021/03/26 11:34:06;;;;;;;8.45;4.70;;;17.80;99.90;;;;;;4957210;29;20498;-75
2021/03/26 11:36:55;;;;;;;7.03;4.50;;;18.00;99.90;;;;;;4955117;29;20031;-76
2021/03/26 11:39:38;;;;;;;5.78;4.18;;;18.20;99.90;;;;;;4965045;29;20038;-78
2021/03/26 11:42:07;;;;;;;10.50;4.50;;;18.30;99.90;;;;;;4948822;29;20090;-77
2021/03/26 11:44:38;;;;;;;6.65;4.50;;;18.50;99.90;;;;;;4961536;28;20400;-77
2021/03/26 11:47:07;;;;;;;;;;;18.70;99.90;;;;;;4953660;29;20473;-76
2021/03/26 11:49:41;;;;;;;5.13;4.10;;;18.70;99.90;;;;;;4936123;29;19942;-78
2021/03/26 11:52:21;;;;;;;9.18;4.05;;;18.50;99.90;;;;;;4935758;29;20130;-78
2021/03/26 11:57:50;;;;;;;6.28;3.65;;;18.90;99.90;;;;;;5021689;23;20053;-78
2021/03/26 12:00:31;;;;;;;6.45;3.90;;;18.60;99.90;;;;;;4958489;28;20075;-75
2021/03/26 12:03:37;;;;;;;3.90;3.53;;;18.80;99.90;;;;;;4942683;28;20027;-74
2021/03/26 12:06:45;;;;;;;8.48;3.95;;;18.90;99.90;;;;;;4956332;29;20116;-76
2021/03/26 12:09:57;;;;;;;5.60;4.18;;;18.60;99.90;;;;;;4969874;29;20027;-77
2021/03/26 12:12:46;;;;;;;5.40;4.03;;;18.70;99.90;;;;;;4996516;23;20036;-84
2021/03/26 12:15:28;;;;;;;5.90;4.90;;;18.90;99.90;;;;;;4965551;28;20027;-83
2021/03/26 12:18:07;;;;;;;5.80;4.35;;;18.90;99.90;;;;;;4961116;28;20035;-84
2021/03/26 12:20:39;;;;;;;5.57;4.20;;;18.60;99.90;;;;;;4946935;29;20032;-85
2021/03/26 12:23:17;;;;;;;5.53;4.97;;;18.50;99.90;;;;;;4945957;29;20095;-82
2021/03/26 12:28:30;;;;;;;7.40;5.13;;;18.30;99.90;;;;;;5028881;23;20039;-84
2021/03/26 12:31:12;;;;;;;7.00;4.85;;;18.20;99.90;;;;;;4964936;28;20030;-86
2021/03/26 12:34:08;;;;;;;10.68;5.53;;;18.20;99.90;;;;;;4977187;28;20022;-83
2021/03/26 12:36:59;;;;;;;10.00;5.05;;;18.00;99.90;;;;;;4957038;28;20018;-83
2021/03/26 12:39:34;;;;;;;10.85;5.28;;;17.90;99.90;;;;;;4969519;23;20067;-78
2021/03/26 12:42:25;;;;;;;6.00;5.07;;;18.30;99.90;;;;;;4972338;28;20022;-78
2021/03/26 12:45:01;;;;;;;8.27;5.97;;;18.50;99.90;;;;;;4957808;29;20059;-76
2021/03/26 12:47:48;;;;;;;16.40;6.28;;;18.30;99.90;;;;;;4958849;29;20023;-77
2021/03/26 12:50:47;;;;;;;5.78;5.13;;;18.30;99.90;;;;;;4948835;29;20023;-78
2021/03/26 12:53:21;;;;;;;10.38;5.25;;;18.40;99.90;;;;;;4965141;28;20022;-76
2021/03/26 12:56:15;;;;;;;5.75;4.95;;;18.40;99.90;;;;;;4951201;28;20027;-77
2021/03/26 12:59:00;;;;;;;7.90;3.85;;;18.90;99.90;;;;;;4958264;29;20043;-77
2021/03/26 13:01:40;;;;;;;8.93;4.40;;;19.10;99.90;;;;;;4955716;28;20039;-77
2021/03/26 13:04:17;;;;;;;7.43;4.65;;;19.10;99.90;;;;;;4950325;29;20027;-77
2021/03/26 13:06:47;;;;;;;5.22;4.40;;;19.30;99.90;;;;;;4969101;28;20058;-78
2021/03/26 13:09:20;;;;;;;3.90;3.50;;;19.10;99.90;;;;;;4951610;28;20479;-76
2021/03/26 13:11:51;;;;;;;4.40;3.28;;;19.00;99.90;;;;;;4959649;28;20483;-76
2021/03/26 13:14:26;;;;;;;3.28;2.95;;;18.80;99.90;;;;;;4955000;28;20031;-78
2021/03/26 13:16:53;;;;;;;5.75;3.45;;;18.50;99.90;;;;;;4968551;28;20031;-77
2021/03/26 13:19:19;;;;;;;4.63;3.60;;;18.50;99.90;;;;;;4952527;28;20050;-77
2021/03/26 13:22:19;;;;;;;3.63;3.08;;;18.70;99.90;;;;;;4979800;28;20038;-77
2021/03/26 13:25:16;;;;;;;4.18;3.33;;;18.80;99.90;;;;;;4964233;28;20400;-76
2021/03/26 13:27:51;;;;;;;4.57;3.15;;;19.00;99.90;;;;;;4944346;29;20030;-77
2021/03/26 13:30:30;;;;;;;4.65;3.15;;;19.10;99.90;;;;;;4984083;28;20039;-76
2021/03/26 13:32:58;;;;;;;5.22;3.15;;;18.90;99.90;;;;;;4946292;29;20035;-76
2021/03/26 13:35:58;;;;;;;6.28;4.13;;;18.60;99.90;;;;;;4976529;28;20039;-77
2021/03/26 13:38:36;;;;;;;4.57;3.38;;;18.40;99.90;;;;;;4950287;28;20066;-77
2021/03/26 13:41:19;;;;;;;6.30;3.83;;;18.60;99.90;;;;;;4972799;28;20026;-78
2021/03/26 13:44:23;;;;;;;5.20;3.50;;;18.60;99.90;;;;;;4958869;28;20081;-77
2021/03/26 13:46:52;;;;;;;8.15;3.47;;;18.60;99.90;;;;;;4970332;28;20043;-77
2021/03/26 13:49:26;;;;;;;6.13;3.92;;;18.80;99.90;;;;;;4950347;28;20038;-76